默认 日期 大小 文件数 浏览量 最新下载 xml
1950磁力链接相关资源由用户搜索指令自动获取,结果来源于网络,本站不存储任何资料,亦不承担任何责任,请于24小时内删除,搜索到6777个磁力,显示前4000条数据,用时4ms。
    {"10. CEWA: Amalume.flac": 7984635, "14. CEWA: Mungabe.flac": 15658384, "18. YAO: Mtempile.flac": 14248595, "13. CEWA: Manyanda.flac": 13246684, "17. CEWA: Pita Uko.flac": 7283270, "22. YAO: Acinkanga.flac": 10825044, "01. MANG'ANJA: Timba.flac": 7322563, ...
创建时间: 2020-06-27 00:52:27 大小:287.15 MB 文件数量:28 热度:3 最近下载:2024-12-18 19:36:04
    ... , "Zabójcza mania - Gun Crazy 1950 [720p.BRRip.Xvid-NoNaNo][Napisy ...
创建时间: 2020-06-27 15:32:43 大小:1.62 GB 文件数量:5 热度:2 最近下载:2021-06-17 16:25:58
    {"www.Torrentday.com.txt": 493, "Please Read This Guide Now.txt": 493, "Casper.The.Friendly.Ghost.1950.S01E01.WEBRip.XviD-WPi.avi": 104814592}
创建时间: 2020-06-28 02:32:22 大小:99.96 MB 文件数量:3 热度:5 最近下载:2025-09-20 03:04:03
    {"Rio.Grande.1950.1080p.BluRay.x264.mp4": 1782983434, "Rio.Grande.1950.1080p.BluRay.x264.srt": 59554}
创建时间: 2020-06-28 21:43:06 大小:1.66 GB 文件数量:2 热度:1 最近下载:2021-06-17 16:25:58
    ... .url": 124, "Entre Dos Juramentos (1950) [BluRay 720p X264 MKV][AC3 ... .rar": 1038090240, "Entre Dos Juramentos (1950) [BluRay 720p X264 MKV][AC3 ... .rar": 1038090240, "Entre Dos Juramentos (1950) [BluRay 720p X264 MKV][AC3 ...
创建时间: 2020-06-28 23:19:03 大小:2.56 GB 文件数量:6 热度:2 最近下载:2021-06-17 16:25:58
    {"STROMBOLI": {"BDMV": {"JAR": {"00001": {"eng_us.txt": 2768, "loader.png": 14155, "composite.png": 1302116, "fp_config.txt": 204, "perf_test.png": 3007, "composite2.png": 1302116, "playbackconfig.xml": 10681, "projectsettings.xml": 933, "resourcesettings. ...
创建时间: 2020-06-29 04:31:12 大小:45 GB 文件数量:125 热度:6 最近下载:2025-04-15 14:03:02
    {"13 The Lady Sings 1944-1950 CD 1": {"13 Guilty.mp3": ... }, "14 The Lady Sings 1944-1950 CD 2": {"02 Porgy.mp3 ...
创建时间: 2020-06-30 11:19:00 大小:205.08 MB 文件数量:36 热度:5 最近下载:2024-12-24 18:36:01
    ... , "Pustka - In a Lonely Place 1950 [BRRip.Xvid-NoNaNo][Lektor PL ...
创建时间: 2020-06-30 20:36:42 大小:854.52 MB 文件数量:5 热度:1 最近下载:2021-06-17 16:25:58
    {"Rio Grande (1950) BRRip Oldies Dual-Audio.mkv": 2188254241}
创建时间: 2020-06-30 23:14:52 大小:2.04 GB 文件数量:1 热度:2 最近下载:2021-06-17 16:25:58
    ... prawa - Where the Sidewalk Ends 1950 [720p.BRRip.Xvid-NoNaNo][Napisy ...
创建时间: 2020-07-01 02:53:02 大小:1.76 GB 文件数量:5 热度:2 最近下载:2021-06-17 16:25:58
    ... Springtime.flac": 12198828, "Djangologie 1928-1950 (Disc 14).cue": 2500, "Djangologie ... Infirmary.flac": 11965694, "Djangologie 1928-1950 (Disc 18).cue": 2157, "Djangologie ... Brouckere.flac": 13251194, "Djangologie 1928-1950 (Disc 19).cue": 2256, "Djangologie ...
创建时间: 2020-07-01 06:54:13 大小:3.43 GB 文件数量:362 热度:7 最近下载:2025-07-23 13:37:02
    {"03. Cover.jpg": 120333, "04. Сторона 1.jpg": 555872, "05. Сторона 2.jpg": 672276, "02. Ария Мазепы из 1 акта оперы ''Мазепа''.flac": 30952349, "01. Монолог Демона из пролога к опере ''Демон''.flac": 36459091}
创建时间: 2020-07-05 18:50:36 大小:65.57 MB 文件数量:5 热度:2 最近下载:2021-06-17 16:25:58
    {"VIDEO_TS": {"VIDEO_TS.BUP": 10240, "VIDEO_TS.IFO": 10240, "VTS_01_0.BUP": 20480, "VTS_01_0.IFO": 20480, "VTS_01_0.VOB": 126976, "VTS_01_1.VOB": 10240, "VTS_02_0.BUP": 61440, "VTS_02_0.IFO": 61440, "VTS_02_0.VOB": 114688, "VTS_02_1.VOB": 1073739776, " ...
创建时间: 2020-07-06 04:41:28 大小:4.32 GB 文件数量:14 热度:8 最近下载:2025-02-19 00:55:02
    {"Winchester.'73.1950.1080p.BluRay.x264.mp4": 1561528705, "Winchester.'73.1950.1080p.BluRay.x264.srt": 79428}
创建时间: 2020-07-07 09:19:00 大小:1.45 GB 文件数量:2 热度:3 最近下载:2024-12-26 02:53:01
    {"SAMPLE": {"Download Player For You Movie.url": 118, "Rashomon.1950.BRRip.Xvid.AC3.RoSubbed-playXD-SAMPLE.avi": 12155503}, "Rashomon.1950.BRRip.Xvid.AC3.RoSubbed-playXD.avi": 1465232510, "Rashomon.1950.BRRip.Xvid.AC3.RoSubbed-playXD.srt": 31170}
创建时间: 2020-07-07 22:45:48 大小:1.38 GB 文件数量:4 热度:2 最近下载:2024-10-31 18:34:01
    {"PCTNEW ORG.url": 113, "PCTRELOAD COM.url": 112, "DESCARGAS2020 ORG.url": 124, "Al Borde Del Peligro (1950) [BluRay 720p X264 MKV][AC3 5.1 Castellano][www.PCTRELOAD.COM].mkv": 1961719589}
创建时间: 2020-07-08 10:32:58 大小:1.83 GB 文件数量:4 热度:3 最近下载:2024-12-27 01:39:03
    ... forr Vol. 4a 1946-1950.txt": 1622, "10. ... battre forr Vol. 4a 1946-1950 - back.jpg": 989996, ... battre forr Vol. 4a 1946-1950 - front.jpg": 46301, ... battre forr Vol. 4a 1946-1950 - inlay.jpg": 1029125, ... battre forr Vol. 4a 1946-1950 - booklet.pdf": 1088560, " ...
创建时间: 2020-07-10 05:19:21 大小:177.4 MB 文件数量:20 热度:3 最近下载:2024-10-17 03:24:01
    {"readme.zip": 178623, " Rocky-Mountain-(1950)-Xvid-1cd---Errol-Flynn-Western-[DDR].avi": 919399367}
创建时间: 2020-07-11 19:21:41 大小:876.98 MB 文件数量:2 热度:2 最近下载:2024-12-29 01:37:02
    ... , "Zabójcza mania - Gun Crazy 1950 [720p.BRRip.Xvid-NoNaNo][Napisy ...
创建时间: 2020-07-12 22:07:03 大小:1.62 GB 文件数量:5 热度:3 最近下载:2024-11-26 15:20:03
    {"Сослан-богатырь 1950.pdf": 580133, "Libedinskiy_Soslan-bogatyir_ego_druzya_i_vragi.158531.fb2": 1344396}
创建时间: 2020-07-14 11:55:06 大小:1.84 MB 文件数量:2 热度:2 最近下载:2021-06-17 16:25:58